Time;durP1;ratioP1;P1;durP2;ratioP2;P2;SDS_P1;SDS_P2;PMS_P1;PMS_P2;Temp;Humidity;BMP_temperature;BMP_pressure;BME280_temperature;BME280_humidity;BME280_pressure;Samples;Min_cycle;Max_cycle;Signal;HPM_P1;HPM_P2
2023/06/13 00:00:49;;;;;;;;;;;;;;;16.90;100.00;94745.19;5053683;28;1045;-57
2023/06/13 00:03:15;;;;;;;;;;;;;;;16.83;100.00;94743.50;5053395;28;1520;-57
2023/06/13 00:05:45;;;;;;;;;;;;;;;16.75;100.00;94748.06;5053431;28;1045;-57
2023/06/13 00:08:17;;;;;;;;;;;;;;;16.76;100.00;94743.50;5053218;28;1914;-56
2023/06/13 00:10:44;;;;;;;;;;;;;;;16.73;100.00;94738.50;5053655;28;969;-56
2023/06/13 00:13:11;;;;;;;;;;;;;;;16.69;100.00;94738.09;5053551;28;1009;-56
2023/06/13 00:15:37;;;;;;;;;;;;;;;16.62;100.00;94736.44;5053422;28;1044;-56
2023/06/13 00:18:03;;;;;;;;;;;;;;;16.49;100.00;94732.72;5052017;28;2552;-56
2023/06/13 00:20:30;;;;;;;;;;;;;;;16.44;100.00;94731.69;5053294;28;1065;-55
2023/06/13 00:22:57;;;;;;;;;;;;;;;16.36;100.00;94728.16;5053231;28;966;-56
2023/06/13 00:25:23;;;;;;;;;;;;;;;16.30;100.00;94733.56;5053078;28;1045;-56
2023/06/13 00:27:49;;;;;;;;;;;;;;;16.29;100.00;94721.91;5053052;28;1997;-56
2023/06/13 00:30:15;;;;;;;;;;;;;;;16.37;100.00;94723.56;5053107;28;1108;-56
2023/06/13 00:32:42;;;;;;;;;;;;;;;16.49;100.00;94724.63;5053317;28;978;-56
2023/06/13 00:35:08;;;;;;;;;;;;;;;16.54;100.00;94726.69;5053386;28;957;-56
2023/06/13 00:37:38;;;;;;;;;;;;;;;16.58;100.00;94727.97;5052791;28;1463;-56
2023/06/13 00:40:05;;;;;;;;;;;;;;;16.52;100.00;94726.06;5052878;28;1323;-56
2023/06/13 00:42:31;;;;;;;;;;;;;;;16.44;100.00;94726.28;5053197;28;1048;-56
2023/06/13 00:45:17;;;;;;;;;;;;;;;16.35;100.00;94726.50;5053037;28;1092;-56
2023/06/13 00:47:45;;;;;;;;;;;;;;;16.27;100.00;94725.88;5052975;28;1277;-56
2023/06/13 00:50:12;;;;;;;;;;;;;;;16.25;100.00;94720.66;5054208;28;1033;-56
2023/06/13 00:52:39;;;;;;;;;;;;;;;16.16;100.00;94730.84;5057021;28;1121;-56
2023/06/13 00:55:06;;;;;;;;;;;;;;;16.14;100.00;94729.38;5056942;28;1225;-56
2023/06/13 00:57:33;;;;;;;;;;;;;;;16.06;100.00;94730.41;5056831;28;1227;-56
2023/06/13 01:00:04;;;;;;;;;;;;;;;16.05;100.00;94720.66;5057157;28;1049;-56
2023/06/13 01:02:30;;;;;;;;;;;;;;;16.10;100.00;94718.16;5056609;28;1101;-56
2023/06/13 01:04:57;;;;;;;;;;;;;;;16.15;100.00;94712.16;5057049;28;1044;-56
2023/06/13 01:07:29;;;;;;;;;;;;;;;16.11;100.00;94713.63;5056929;28;969;-56
2023/06/13 01:09:56;;;;;;;;;;;;;;;16.05;100.00;94715.28;5056687;28;1910;-56
2023/06/13 01:12:51;;;;;;;;;;;;;;;16.17;100.00;94716.31;5056843;28;1024;-56
2023/06/13 01:15:18;;;;;;;;;;;;;;;16.29;100.00;94721.91;5027974;28;1084;-56
2023/06/13 01:17:49;;;;;;;;;;;;;;;16.30;100.00;94718.19;5056790;28;965;-57
2023/06/13 01:20:16;;;;;;;;;;;;;;;16.32;100.00;94713.41;5056760;28;1048;-57
2023/06/13 01:22:45;;;;;;;;;;;;;;;16.14;100.00;94722.13;5056568;28;966;-56
2023/06/13 01:25:16;;;;;;;;;;;;;;;16.06;100.00;94718.78;5056402;28;1029;-56
2023/06/13 01:27:49;;;;;;;;;;;;;;;16.00;100.00;94707.78;5056630;28;1054;-56
2023/06/13 01:30:15;;;;;;;;;;;;;;;16.11;100.00;94706.34;5056530;28;1009;-57
2023/06/13 01:32:42;;;;;;;;;;;;;;;16.23;100.00;94706.56;5056475;28;1044;-57
2023/06/13 01:35:09;;;;;;;;;;;;;;;16.33;100.00;94715.09;5056628;28;1020;-57
2023/06/13 01:37:35;;;;;;;;;;;;;;;16.46;100.00;94714.25;5056031;28;1695;-56
2023/06/13 01:40:02;;;;;;;;;;;;;;;16.36;100.00;94711.97;5056034;28;1306;-57
2023/06/13 01:42:28;;;;;;;;;;;;;;;16.18;100.00;94707.19;5056301;28;1044;-57
2023/06/13 01:44:54;;;;;;;;;;;;;;;16.15;100.00;94718.38;5056309;28;1024;-57
2023/06/13 01:47:22;;;;;;;;;;;;;;;16.11;100.00;94717.13;5056123;28;1050;-57
2023/06/13 01:49:56;;;;;;;;;;;;;;;16.02;100.00;94721.06;5056240;28;1902;-56
2023/06/13 01:52:25;;;;;;;;;;;;;;;16.01;100.00;94719.41;5055921;28;990;-57
2023/06/13 01:55:00;;;;;;;;;;;;;;;16.03;100.00;94720.06;5055889;28;1059;-57
2023/06/13 01:57:32;;;;;;;;;;;;;;;16.00;100.00;94715.88;5054231;28;2657;-57
2023/06/13 01:59:59;;;;;;;;;;;;;;;16.04;100.00;94716.31;5056091;28;1051;-57
2023/06/13 02:02:26;;;;;;;;;;;;;;;16.18;100.00;94720.69;5055213;28;1045;-57
2023/06/13 02:04:54;;;;;;;;;;;;;;;16.33;100.00;94720.50;5054203;28;2915;-57
2023/06/13 02:07:20;;;;;;;;;;;;;;;16.46;100.00;94716.94;5055620;28;969;-57
2023/06/13 02:09:46;;;;;;;;;;;;;;;16.57;100.00;94718.19;5056114;28;2045;-57
2023/06/13 02:12:12;;;;;;;;;;;;;;;16.64;100.00;94719.00;5055792;28;1037;-57
2023/06/13 02:14:39;;;;;;;;;;;;;;;16.66;100.00;94718.81;5055779;28;997;-56
2023/06/13 02:17:06;;;;;;;;;;;;;;;16.59;100.00;94716.09;5055527;28;997;-57
2023/06/13 02:19:32;;;;;;;;;;;;;;;16.59;100.00;94716.94;5055345;28;970;-56
2023/06/13 02:21:58;;;;;;;;;;;;;;;16.72;100.00;94720.66;5055610;28;1012;-57
2023/06/13 02:24:24;;;;;;;;;;;;;;;16.71;100.00;94710.91;5055517;28;977;-57
2023/06/13 02:26:51;;;;;;;;;;;;;;;16.60;100.00;94712.38;5055379;28;1008;-57
2023/06/13 02:29:18;;;;;;;;;;;;;;;16.58;100.00;94715.28;5055438;28;1910;-57
2023/06/13 02:31:45;;;;;;;;;;;;;;;16.57;100.00;94712.78;5055138;28;1963;-57
2023/06/13 02:34:11;;;;;;;;;;;;;;;16.66;100.00;94710.72;5055297;28;966;-57
2023/06/13 02:36:37;;;;;;;;;;;;;;;16.70;100.00;94720.06;5054295;28;2383;-56
2023/06/13 02:39:03;;;;;;;;;;;;;;;16.67;100.00;94725.84;5054130;28;2665;-56
2023/06/13 02:41:29;;;;;;;;;;;;;;;16.63;100.00;94721.91;5055126;28;1020;-57
2023/06/13 02:43:56;;;;;;;;;;;;;;;16.55;100.00;94729.19;5055145;28;1053;-57
2023/06/13 02:46:22;;;;;;;;;;;;;;;16.55;100.00;94725.66;5054804;28;1092;-57
2023/06/13 02:48:48;;;;;;;;;;;;;;;16.55;100.00;94729.19;5054737;28;1993;-57
2023/06/13 02:51:14;;;;;;;;;;;;;;;16.60;100.00;94728.56;5054951;28;1041;-57
2023/06/13 02:53:40;;;;;;;;;;;;;;;16.62;100.00;94728.34;5055077;28;1032;-57
2023/06/13 02:56:06;;;;;;;;;;;;;;;16.57;100.00;94734.38;5053462;28;2996;-57
2023/06/13 02:58:32;;;;;;;;;;;;;;;16.52;100.00;94732.31;5054903;28;978;-57
2023/06/13 03:00:58;;;;;;;;;;;;;;;16.59;100.00;94729.59;5054723;28;1013;-58
2023/06/13 03:03:24;;;;;;;;;;;;;;;16.63;100.00;94733.53;5054443;28;1301;-57
2023/06/13 03:05:56;;;;;;;;;;;;;;;16.73;100.00;94738.50;5054538;28;1025;-57
2023/06/13 03:08:22;;;;;;;;;;;;;;;16.76;100.00;94732.69;5054721;28;1913;-58
2023/06/13 03:10:50;;;;;;;;;;;;;;;16.82;100.00;94739.13;5054664;28;970;-58
2023/06/13 03:13:17;;;;;;;;;;;;;;;16.92;100.00;94736.84;5053610;28;990;-58
2023/06/13 03:15:47;;;;;;;;;;;;;;;16.98;100.00;94736.03;5054522;28;1038;-58
2023/06/13 03:18:13;;;;;;;;;;;;;;;16.98;100.00;94738.72;5054204;28;1027;-58
2023/06/13 03:20:45;;;;;;;;;;;;;;;16.95;100.00;94741.84;5054270;28;1046;-58
2023/06/13 03:23:18;;;;;;;;;;;;;;;16.94;100.00;94732.06;5054446;28;994;-58
2023/06/13 03:25:44;;;;;;;;;;;;;;;17.03;100.00;94735.38;5054338;28;1271;-58
2023/06/13 03:28:10;;;;;;;;;;;;;;;17.06;100.00;94735.78;5054052;28;1913;-58
2023/06/13 03:30:37;;;;;;;;;;;;;;;17.14;100.00;94738.25;5054030;28;1050;-58
2023/06/13 03:33:03;;;;;;;;;;;;;;;17.18;100.00;94747.59;5053946;28;1057;-58
2023/06/13 03:35:29;;;;;;;;;;;;;;;17.10;100.00;94750.53;5053943;28;1371;-57
2023/06/13 03:37:55;;;;;;;;;;;;;;;17.02;100.00;94744.53;5053865;28;1491;-58
2023/06/13 03:40:21;;;;;;;;;;;;;;;17.11;100.00;94745.94;5053895;28;1041;-57
2023/06/13 03:42:47;;;;;;;;;;;;;;;17.15;100.00;94748.03;5053998;28;1031;-57
2023/06/13 03:45:17;;;;;;;;;;;;;;;17.18;100.00;94753.00;5053728;28;961;-58
2023/06/13 03:47:43;;;;;;;;;;;;;;;17.19;100.00;94759.25;5053692;28;1575;-58
2023/06/13 03:50:09;;;;;;;;;;;;;;;17.16;100.00;94755.09;5053554;28;1906;-58
2023/06/13 03:52:35;;;;;;;;;;;;;;;17.17;100.00;94751.34;5053887;28;1315;-57
2023/06/13 03:55:01;;;;;;;;;;;;;;;17.20;100.00;94760.91;5053833;28;1023;-57
2023/06/13 03:57:30;;;;;;;;;;;;;;;17.25;100.00;94758.41;5053249;28;1221;-57
2023/06/13 03:59:56;;;;;;;;;;;;;;;17.27;100.00;94760.88;5053601;28;1026;-58
2023/06/13 04:02:23;;;;;;;;;;;;;;;17.30;100.00;94760.44;5035547;28;1041;-58
2023/06/13 04:04:52;;;;;;;;;;;;;;;17.33;100.00;94762.75;5053583;28;954;-57
2023/06/13 04:07:21;;;;;;;;;;;;;;;17.32;100.00;94758.38;5053360;28;1135;-58
2023/06/13 04:09:47;;;;;;;;;;;;;;;17.48;100.00;94767.88;5053452;28;1902;-57
2023/06/13 04:12:14;;;;;;;;;;;;;;;17.46;100.00;94765.41;5053420;28;1187;-58
2023/06/13 04:14:40;;;;;;;;;;;;;;;17.37;100.00;94770.19;5053250;28;1045;-58
2023/06/13 04:17:09;;;;;;;;;;;;;;;17.37;100.00;94775.59;5053311;28;1024;-57
2023/06/13 04:19:35;;;;;;;;;;;;;;;17.35;100.00;94766.06;5053243;28;1033;-58
2023/06/13 04:22:06;;;;;;;;;;;;;;;17.43;100.00;94759.59;5053421;28;1063;-57
2023/06/13 04:24:32;;;;;;;;;;;;;;;17.52;100.00;94761.84;5052817;28;993;-58
2023/06/13 04:27:03;;;;;;;;;;;;;;;17.61;100.00;94767.03;5053136;28;1077;-58
2023/06/13 04:29:30;;;;;;;;;;;;;;;17.74;100.00;94773.19;5053186;28;1914;-57
2023/06/13 04:31:56;;;;;;;;;;;;;;;17.62;100.00;94774.06;5053152;28;1049;-58
2023/06/13 04:34:24;;;;;;;;;;;;;;;17.54;100.00;94765.16;5053269;28;958;-58
2023/06/13 04:36:55;;;;;;;;;;;;;;;17.56;100.00;94770.34;5053113;28;1749;-57
2023/06/13 04:39:24;;;;;;;;;;;;;;;17.64;100.00;94771.97;5052692;28;1112;-57
2023/06/13 04:41:55;;;;;;;;;;;;;;;17.66;100.00;94775.28;5053020;28;1051;-57
2023/06/13 04:44:28;;;;;;;;;;;;;;;17.68;100.00;94774.06;5051471;28;2478;-57
2023/06/13 04:46:57;;;;;;;;;;;;;;;17.70;100.00;94779.22;5053237;28;911;-58
2023/06/13 04:49:25;;;;;;;;;;;;;;;17.81;100.00;94783.97;5052655;28;1910;-58
2023/06/13 04:51:54;;;;;;;;;;;;;;;17.83;100.00;94787.31;5052160;28;2430;-58
2023/06/13 04:54:21;;;;;;;;;;;;;;;17.88;100.00;94784.78;5052489;28;2875;-58
2023/06/13 04:56:48;;;;;;;;;;;;;;;17.99;100.00;94791.41;5052716;28;1344;-58
2023/06/13 04:59:14;;;;;;;;;;;;;;;17.91;100.00;94787.09;5053013;28;1011;-58
2023/06/13 05:01:40;;;;;;;;;;;;;;;17.93;100.00;94789.56;5035429;28;1019;-58
2023/06/13 05:04:06;;;;;;;;;;;;;;;17.85;100.00;94793.34;5035139;28;1234;-59
2023/06/13 05:06:34;;;;;;;;;;;;;;;17.84;100.00;94796.25;5052847;28;997;-58
2023/06/13 05:09:00;;;;;;;;;;;;;;;17.89;100.00;94796.44;5052896;28;1914;-58
2023/06/13 05:11:26;;;;;;;;;;;;;;;17.95;100.00;94788.31;5052587;28;1065;-58
2023/06/13 05:13:52;;;;;;;;;;;;;;;18.04;100.00;94794.31;5035313;28;1188;-58
2023/06/13 05:16:19;;;;;;;;;;;;;;;18.12;100.00;94796.75;5052569;28;1049;-58
2023/06/13 05:18:46;;;;;;;;;;;;;;;18.18;100.00;94792.34;5052813;28;1037;-58
2023/06/13 05:21:16;;;;;;;;;;;;;;;18.23;100.00;94795.25;5067706;28;1592;-58
2023/06/13 05:23:44;;;;;;;;;;;;;;;18.20;100.00;94805.66;5034887;28;1539;-58
2023/06/13 05:26:10;;;;;;;;;;;;;;;18.19;100.00;94804.81;5052401;28;977;-58
2023/06/13 05:28:36;;;;;;;;;;;;;;;18.12;100.00;94801.34;5052647;28;1906;-57
2023/06/13 05:31:03;;;;;;;;;;;;;;;17.97;100.00;94790.81;5052688;28;1009;-58
2023/06/13 05:33:29;;;;;;;;;;;;;;;18.08;100.00;94800.94;5052370;28;1048;-58
2023/06/13 05:35:55;;;;;;;;;;;;;;;18.17;100.00;94806.91;5053494;28;1006;-58
2023/06/13 05:38:21;;;;;;;;;;;;;;;18.23;100.00;94797.09;5055523;28;1342;-58
2023/06/13 05:40:47;;;;;;;;;;;;;;;18.29;100.00;94799.78;5055998;28;1065;-58
2023/06/13 05:43:19;;;;;;;;;;;;;;;18.38;100.00;94802.22;5038447;28;1045;-58
2023/06/13 05:45:48;;;;;;;;;;;;;;;18.45;100.00;94803.81;5036567;28;2545;-59
2023/06/13 05:48:14;;;;;;;;;;;;;;;18.49;100.00;94806.94;5055408;28;1902;-58
2023/06/13 05:50:40;;;;;;;;;;;;;;;18.51;100.00;94813.78;5055923;28;1005;-58
2023/06/13 05:53:07;;;;;;;;;;;;;;;18.50;100.00;94801.31;5055720;28;1038;-58
2023/06/13 05:55:33;;;;;;;;;;;;;;;18.55;100.00;94803.34;5055556;28;1038;-58
2023/06/13 05:57:59;;;;;;;;;;;;;;;18.60;100.00;94805.41;5055905;28;1037;-58
2023/06/13 06:00:25;;;;;;;;;;;;;;;18.65;100.00;94800.19;5055471;28;1108;-58
2023/06/13 06:02:52;;;;;;;;;;;;;;;18.63;100.00;94802.25;5055563;28;1049;-58
2023/06/13 06:05:21;;;;;;;;;;;;;;;18.74;100.00;94806.94;5055754;28;1009;-58
2023/06/13 06:07:47;;;;;;;;;;;;;;;18.85;100.00;94800.03;5055481;28;1004;-58
2023/06/13 06:10:13;;;;;;;;;;;;;;;18.74;100.00;94804.25;5037629;28;1906;-58
2023/06/13 06:12:39;;;;;;;;;;;;;;;18.83;100.00;94794.81;5055661;28;981;-58
2023/06/13 06:15:06;;;;;;;;;;;;;;;18.78;100.00;94797.34;5055243;28;1038;-58
2023/06/13 06:17:32;;;;;;;;;;;;;;;18.69;100.00;94804.09;5055518;28;1048;-58
2023/06/13 06:19:58;;;;;;;;;;;;;;;18.61;100.00;94804.34;5055273;28;1053;-58
2023/06/13 06:22:24;;;;;;;;;;;;;;;18.44;100.00;94804.88;5055640;28;1069;-58
2023/06/13 06:24:50;;;;;;;;;;;;;;;18.56;100.00;94802.31;5055422;28;1004;-58
2023/06/13 06:27:17;;;;;;;;;;;;;;;18.67;100.00;94804.31;5055363;28;1045;-57
2023/06/13 06:29:43;;;;;;;;;;;;;;;18.61;100.00;94804.34;5055041;28;1996;-58
2023/06/13 06:32:10;;;;;;;;;;;;;;;18.48;100.00;94803.41;5055124;28;1034;-58
2023/06/13 06:34:36;;;;;;;;;;;;;;;18.46;100.00;94808.22;5054076;28;2871;-58
2023/06/13 06:37:04;;;;;;;;;;;;;;;18.59;100.00;94807.28;5037199;28;1414;-59
2023/06/13 06:39:30;;;;;;;;;;;;;;;18.70;100.00;94811.16;5047555;28;2577;-58
2023/06/13 06:41:56;;;;;;;;;;;;;;;18.67;100.00;94809.72;5055107;28;1054;-59
2023/06/13 06:44:22;;;;;;;;;;;;;;;18.71;100.00;94812.81;5054282;28;2912;-59
2023/06/13 06:46:48;;;;;;;;;;;;;;;18.91;100.00;94807.25;5054048;28;2867;-59
2023/06/13 06:49:16;;;;;;;;;;;;;;;18.99;100.00;94798.03;5054158;28;2922;-59
2023/06/13 06:51:42;;;;;;;;;;;;;;;18.98;100.00;94809.94;5054612;28;1128;-59
2023/06/13 06:54:08;;;;;;;;;;;;;;;19.04;100.00;94811.75;5054918;28;981;-59
2023/06/13 06:56:34;;;;;;;;;;;;;;;19.10;100.00;94805.44;5054579;28;1128;-59
2023/06/13 06:59:00;;;;;;;;;;;;;;;19.12;100.00;94806.03;5054870;28;1027;-59
2023/06/13 07:01:26;;;;;;;;;;;;;;;19.02;100.00;94805.72;5037056;28;1187;-59
2023/06/13 07:03:52;;;;;;;;;;;;;;;19.08;100.00;94802.13;5054403;28;1042;-59
2023/06/13 07:06:19;;;;;;;;;;;;;;;19.07;100.00;94805.91;5054357;28;1005;-59
2023/06/13 07:08:45;;;;;;;;;;;;;;;19.08;100.00;94802.13;5054689;28;1910;-59
2023/06/13 07:11:12;;;;;;;;;;;;;;;19.04;100.00;94807.16;5054493;28;1029;-59
2023/06/13 07:13:38;;;;;;;;;;;;;;;19.08;100.00;94791.28;5054522;28;961;-58
2023/06/13 07:16:04;;;;;;;;;;;;;;;19.11;100.00;94802.50;5054257;28;930;-59
2023/06/13 07:18:30;;;;;;;;;;;;;;;18.99;100.00;94801.59;5053634;28;1296;-59
2023/06/13 07:20:56;;;;;;;;;;;;;;;18.87;100.00;94801.47;5053382;28;1012;-59
2023/06/13 07:23:23;;;;;;;;;;;;;;;18.80;100.00;94803.41;5054003;28;1041;-58
2023/06/13 07:25:49;;;;;;;;;;;;;;;18.82;100.00;94803.16;5054346;28;1013;-58
2023/06/13 07:28:15;;;;;;;;;;;;;;;18.81;100.00;94805.06;5054151;28;1926;-59
2023/06/13 07:30:41;;;;;;;;;;;;;;;18.86;100.00;94799.81;5053846;28;1104;-59
2023/06/13 07:33:07;;;;;;;;;;;;;;;18.86;100.00;94802.53;5054091;28;1033;-59
2023/06/13 07:35:33;;;;;;;;;;;;;;;18.79;100.00;94800.88;5053772;28;1008;-59
2023/06/13 07:37:59;;;;;;;;;;;;;;;18.86;100.00;94796.28;5036038;28;1426;-59
2023/06/13 07:40:25;;;;;;;;;;;;;;;18.83;100.00;94796.72;5053591;28;1050;-59
2023/06/13 07:42:52;;;;;;;;;;;;;;;18.89;100.00;94801.25;5053902;28;1052;-59
2023/06/13 07:45:18;;;;;;;;;;;;;;;18.90;100.00;94798.31;5053738;28;1024;-59
2023/06/13 07:47:44;;;;;;;;;;;;;;;19.04;100.00;94785.47;5053914;28;1001;-59
2023/06/13 07:50:10;;;;;;;;;;;;;;;19.23;100.00;94789.03;5053388;28;1910;-59
2023/06/13 07:52:36;;;;;;;;;;;;;;;19.29;100.00;94785.47;5053741;28;975;-59
2023/06/13 07:55:03;;;;;;;;;;;;;;;19.25;100.00;94789.66;5053486;28;1101;-59
2023/06/13 07:57:29;;;;;;;;;;;;;;;19.25;100.00;94778.81;5051715;28;2608;-57
2023/06/13 07:59:56;;;;;;;;;;;;;;;19.40;100.00;94786.56;5051622;28;2545;-59
2023/06/13 08:02:23;;;;;;;;;;;;;;;19.43;100.00;94788.03;5051636;28;2590;-59
2023/06/13 08:04:49;;;;;;;;;;;;;;;19.39;100.00;94790.34;5053183;28;1042;-59
2023/06/13 08:07:16;;;;;;;;;;;;;;;19.42;100.00;94783.66;5052449;28;2513;-59
2023/06/13 08:09:42;;;;;;;;;;;;;;;19.33;100.00;94785.84;5052141;28;2978;-59
2023/06/13 08:12:10;;;;;;;;;;;;;;;19.29;100.00;94785.47;5053525;28;977;-59
2023/06/13 08:14:36;;;;;;;;;;;;;;;19.31;100.00;94787.91;5051782;28;2506;-59
2023/06/13 08:17:02;;;;;;;;;;;;;;;19.37;100.00;94780.78;5053240;28;945;-58
2023/06/13 08:19:28;;;;;;;;;;;;;;;19.39;100.00;94792.22;5053586;28;1026;-58
2023/06/13 08:21:54;;;;;;;;;;;;;;;19.35;100.00;94786.44;5053319;28;1001;-58
2023/06/13 08:24:21;;;;;;;;;;;;;;;19.37;100.00;94791.63;5046814;28;2509;-59
2023/06/13 08:26:49;;;;;;;;;;;;;;;19.27;100.00;94784.00;5032897;28;1469;-58
2023/06/13 08:29:17;;;;;;;;;;;;;;;19.37;100.00;94783.50;5033085;28;1987;-59
2023/06/13 08:31:44;;;;;;;;;;;;;;;19.51;100.00;94782.31;5033400;28;1051;-59
2023/06/13 08:34:10;;;;;;;;;;;;;;;19.55;100.00;94785.41;5033024;28;1117;-59
2023/06/13 08:36:36;;;;;;;;;;;;;;;19.62;100.00;94789.69;5036163;28;1327;-59
2023/06/13 08:39:04;;;;;;;;;;;;;;;19.62;100.00;94778.00;5049100;28;1192;-58
2023/06/13 08:41:30;;;;;;;;;;;;;;;19.63;100.00;94785.91;5052815;28;1050;-59
2023/06/13 08:43:58;;;;;;;;;;;;;;;19.70;100.00;94780.41;5053259;28;970;-59
2023/06/13 08:46:26;;;;;;;;;;;;;;;19.76;100.00;94784.13;5052737;28;1054;-58
2023/06/13 08:48:52;;;;;;;;;;;;;;;19.83;100.00;94784.88;5052754;28;1906;-59
2023/06/13 08:51:21;;;;;;;;;;;;;;;19.86;100.00;94784.41;5053027;28;977;-59
2023/06/13 08:53:51;;;;;;;;;;;;;;;19.96;100.00;94790.16;5052729;28;1061;-59
2023/06/13 08:56:20;;;;;;;;;;;;;;;19.99;100.00;94786.13;5053034;28;1012;-59
2023/06/13 08:58:49;;;;;;;;;;;;;;;20.03;100.00;94790.91;5053062;28;1033;-59
2023/06/13 09:01:18;;;;;;;;;;;;;;;20.05;100.00;94799.63;5050907;28;2502;-59
2023/06/13 09:03:44;;;;;;;;;;;;;;;20.09;100.00;94781.84;5052496;28;1046;-59
2023/06/13 09:06:11;;;;;;;;;;;;;;;20.20;100.00;94784.81;5052557;28;1123;-59
2023/06/13 09:08:38;;;;;;;;;;;;;;;20.06;100.00;94786.88;5052601;28;1978;-59
2023/06/13 09:11:04;;;;;;;;;;;;;;;20.14;100.00;94785.75;5053834;28;968;-59
2023/06/13 09:13:31;;;;;;;;;;;;;;;20.05;100.00;94788.78;5056562;28;981;-58
2023/06/13 09:15:57;;;;;;;;;;;;;;;19.92;100.00;94785.38;5056272;28;1049;-59
2023/06/13 09:18:24;;;;;;;;;;;;;;;20.04;100.00;94781.69;5056607;28;1038;-59
2023/06/13 09:20:50;;;;;;;;;;;;;;;20.18;100.00;94784.22;5056728;28;986;-58
2023/06/13 09:23:17;;;;;;;;;;;;;;;20.31;100.00;94780.50;5056394;28;1412;-59
2023/06/13 09:25:45;;;;;;;;;;;;;;;20.53;100.00;94778.09;5056336;28;1088;-59
2023/06/13 09:28:29;;;;;;;;;;;;;;;20.68;100.00;94770.38;5056126;28;1985;-59
2023/06/13 09:30:56;;;;;;;;;;;;;;;20.87;100.00;94771.09;5056400;28;1020;-59
2023/06/13 09:33:23;;;;;;;;;;;;;;;21.10;98.65;94772.19;5054897;28;2501;-59
2023/06/13 09:35:50;;;;;;;;;;;;;;;21.29;95.70;94773.72;5056128;28;1043;-59
2023/06/13 09:38:21;;;;;;;;;;;;;;;21.49;98.40;94773.34;5054199;28;2848;-59
2023/06/13 09:40:47;;;;;;;;;;;;;;;21.47;99.00;94772.75;5056004;28;977;-58
2023/06/13 09:43:13;;;;;;;;;;;;;;;21.56;97.06;94771.34;5055784;28;1133;-59
2023/06/13 09:45:39;;;;;;;;;;;;;;;21.42;98.55;94776.19;5056207;28;1030;-58
2023/06/13 09:48:05;;;;;;;;;;;;;;;21.23;97.80;94780.09;5055883;28;1262;-59
2023/06/13 09:50:31;;;;;;;;;;;;;;;21.20;97.34;94784.09;5055804;28;1144;-59
2023/06/13 09:52:58;;;;;;;;;;;;;;;21.07;96.73;94787.06;5055556;28;1109;-59
2023/06/13 09:55:24;;;;;;;;;;;;;;;20.94;98.28;94781.84;5055693;28;950;-59
2023/06/13 09:57:50;;;;;;;;;;;;;;;20.80;98.52;94778.53;5055923;28;1041;-58
2023/06/13 10:00:16;;;;;;;;;;;;;;;21.14;95.96;94776.91;5055831;28;1053;-59
2023/06/13 10:02:43;;;;;;;;;;;;;;;21.24;94.83;94774.41;5055751;28;1051;-58
2023/06/13 10:05:10;;;;;;;;;;;;;;;21.48;96.13;94771.72;5055709;28;997;-59
2023/06/13 10:07:36;;;;;;;;;;;;;;;21.54;94.34;94768.03;5055425;28;1100;-59
2023/06/13 10:10:02;;;;;;;;;;;;;;;21.55;90.25;94766.13;5055464;28;1914;-59
2023/06/13 10:12:31;;;;;;;;;;;;;;;21.68;93.15;94765.88;5055242;28;1030;-58
2023/06/13 10:15:00;;;;;;;;;;;;;;;21.97;93.58;94777.66;5055645;28;1015;-59
2023/06/13 10:17:28;;;;;;;;;;;;;;;22.17;91.85;94774.47;5055538;28;966;-58
2023/06/13 10:20:00;;;;;;;;;;;;;;;22.28;91.66;94778.25;5055623;28;1046;-59
2023/06/13 10:22:26;;;;;;;;;;;;;;;22.63;92.11;94779.16;5055104;28;966;-58
2023/06/13 10:24:53;;;;;;;;;;;;;;;22.62;89.09;94781.06;5055135;28;1033;-58
2023/06/13 10:27:21;;;;;;;;;;;;;;;22.70;90.93;94782.56;5055062;28;1034;-62
2023/06/13 10:29:54;;;;;;;;;;;;;;;22.66;91.28;94776.78;5037552;28;1914;-59
2023/06/13 10:32:20;;;;;;;;;;;;;;;22.27;86.80;94775.78;5055363;28;970;-58
2023/06/13 10:34:55;;;;;;;;;;;;;;;21.86;89.28;94764.91;5054920;28;1101;-58
2023/06/13 10:37:21;;;;;;;;;;;;;;;21.57;92.15;94764.84;5037030;28;1510;-58
2023/06/13 10:39:47;;;;;;;;;;;;;;;21.34;93.54;94765.69;5054694;28;1316;-58
2023/06/13 10:42:22;;;;;;;;;;;;;;;21.30;94.83;94769.09;5054780;28;1097;-59
2023/06/13 10:44:48;;;;;;;;;;;;;;;21.17;91.55;94764.72;5055126;28;982;-58
2023/06/13 10:47:18;;;;;;;;;;;;;;;20.90;93.24;94773.31;5054832;28;981;-58
2023/06/13 10:49:47;;;;;;;;;;;;;;;20.86;95.67;94783.00;5054658;28;2019;-58
2023/06/13 10:52:13;;;;;;;;;;;;;;;20.41;100.00;94786.19;5054425;28;1076;-58
2023/06/13 10:54:40;;;;;;;;;;;;;;;19.90;100.00;94780.22;5054876;28;1021;-58
2023/06/13 10:57:06;;;;;;;;;;;;;;;19.60;100.00;94780.94;5054831;28;1097;-58
2023/06/13 10:59:36;;;;;;;;;;;;;;;19.49;100.00;94784.41;5020557;28;1053;-59
2023/06/13 11:02:03;;;;;;;;;;;;;;;19.54;100.00;94779.16;5054659;28;1000;-58
2023/06/13 11:04:29;;;;;;;;;;;;;;;19.65;100.00;94783.81;5054414;28;954;-59
2023/06/13 11:07:35;;;;;;;;;;;;;;;19.91;100.00;94781.84;5054289;28;1209;-59
2023/06/13 11:10:10;;;;;;;;;;;;;;;20.01;100.00;94776.69;4973426;28;1990;-59
2023/06/13 11:12:36;;;;;;;;;;;;;;;20.18;100.00;94779.59;4972725;28;2553;-59
2023/06/13 11:15:03;;;;;;;;;;;;;;;20.29;100.00;94778.00;5005057;28;2982;-59
2023/06/13 11:17:29;;;;;;;;;;;;;;;20.25;100.00;94777.63;5034136;28;1033;-59
2023/06/13 11:19:58;;;;;;;;;;;;;;;20.21;100.00;94779.16;5016911;28;1045;-59
2023/06/13 11:22:24;;;;;;;;;;;;;;;20.18;100.00;94778.78;5034271;28;1034;-59
2023/06/13 11:24:51;;;;;;;;;;;;;;;20.14;100.00;94774.88;5034513;28;957;-59
2023/06/13 11:27:17;;;;;;;;;;;;;;;20.15;100.00;94777.38;5033994;28;1084;-60
2023/06/13 11:29:44;;;;;;;;;;;;;;;20.10;100.00;94785.38;5033878;28;2171;-59
2023/06/13 11:32:11;;;;;;;;;;;;;;;20.12;100.00;94785.13;5016774;28;1068;-59
2023/06/13 11:34:46;;;;;;;;;;;;;;;20.17;100.00;94788.00;5033619;28;1052;-59
2023/06/13 11:37:19;;;;;;;;;;;;;;;20.18;100.00;94793.19;5041829;28;1398;-59
2023/06/13 11:39:52;;;;;;;;;;;;;;;20.30;100.00;94782.38;5053517;28;1062;-59
2023/06/13 11:42:18;;;;;;;;;;;;;;;20.37;100.00;94785.81;5053539;28;1054;-59
2023/06/13 11:44:44;;;;;;;;;;;;;;;20.56;100.00;94783.03;5053971;28;962;-59
2023/06/13 11:47:11;;;;;;;;;;;;;;;20.64;100.00;94785.44;5053837;28;1040;-59
2023/06/13 11:49:37;;;;;;;;;;;;;;;20.71;100.00;94786.19;5035899;28;1995;-59
2023/06/13 11:52:14;;;;;;;;;;;;;;;20.83;98.07;94776.16;5052268;28;2557;-59
2023/06/13 11:54:46;;;;;;;;;;;;;;;20.95;100.00;94786.22;5053409;28;981;-59
2023/06/13 11:57:16;;;;;;;;;;;;;;;21.16;97.35;94782.09;5053720;28;954;-59
2023/06/13 11:59:43;;;;;;;;;;;;;;;21.26;96.90;94791.31;5053415;28;1049;-59
2023/06/13 12:02:12;;;;;;;;;;;;;;;21.17;100.00;94779.16;5068884;28;1057;-58
2023/06/13 12:04:41;;;;;;;;;;;;;;;21.24;99.39;94784.47;5053480;28;1056;-59
2023/06/13 12:07:07;;;;;;;;;;;;;;;21.28;99.96;94788.34;5053569;28;1056;-59
2023/06/13 12:09:33;;;;;;;;;;;;;;;21.18;97.85;94790.84;5053066;28;1901;-59
2023/06/13 12:11:59;;;;;;;;;;;;;;;20.97;100.00;94778.66;5052761;28;2521;-58
2023/06/13 12:14:28;;;;;;;;;;;;;;;20.88;100.00;94778.16;5052034;28;2968;-58
2023/06/13 12:16:55;;;;;;;;;;;;;;;20.77;100.00;94777.13;5053357;28;1017;-58
2023/06/13 12:19:22;;;;;;;;;;;;;;;20.93;100.00;94775.59;5053061;28;1058;-58
2023/06/13 12:21:49;;;;;;;;;;;;;;;20.94;100.00;94762.81;5053196;28;1046;-58
2023/06/13 12:24:16;;;;;;;;;;;;;;;20.72;100.00;94773.44;5053251;28;1033;-58
2023/06/13 12:26:43;;;;;;;;;;;;;;;20.76;100.00;94766.47;5052965;28;1045;-58
2023/06/13 12:29:11;;;;;;;;;;;;;;;20.78;100.00;94769.78;5035353;28;1910;-58
2023/06/13 12:31:41;;;;;;;;;;;;;;;20.86;100.00;94774.88;5053141;28;942;-58
2023/06/13 12:34:07;;;;;;;;;;;;;;;20.75;100.00;94771.06;5053299;28;982;-58
2023/06/13 12:36:41;;;;;;;;;;;;;;;20.52;100.00;94765.56;5052872;28;1350;-58
2023/06/13 12:39:09;;;;;;;;;;;;;;;20.51;100.00;94772.03;5048530;28;2671;-58
2023/06/13 12:41:36;;;;;;;;;;;;;;;20.46;100.00;94773.56;5032912;28;1017;-58
2023/06/13 12:44:03;;;;;;;;;;;;;;;20.47;100.00;94763.56;5033289;28;1080;-58
2023/06/13 12:46:29;;;;;;;;;;;;;;;20.45;100.00;94771.94;5036546;28;966;-58
2023/06/13 12:48:55;;;;;;;;;;;;;;;20.57;100.00;94776.56;5037074;28;1914;-58
2023/06/13 12:51:28;;;;;;;;;;;;;;;20.61;100.00;94781.31;5036899;28;1029;-58